Time;durP1;ratioP1;P1;durP2;ratioP2;P2;SDS_P1;SDS_P2;PMS_P1;PMS_P2;Temp;Humidity;BMP_temperature;BMP_pressure;BME280_temperature;BME280_humidity;BME280_pressure;Samples;Min_cycle;Max_cycle;Signal;HPM_P1;HPM_P2
2021/03/22 00:01:30;;;;;;;;;;;;;;;22.30;37.64;102567.78;3094615;28;115131;-54
2021/03/22 00:03:01;;;;;;;;;;;;;;;22.30;37.73;102569.75;3115032;27;115635;-55
2021/03/22 00:04:33;;;;;;;;;;;;;;;22.29;37.46;102568.91;3102647;27;115016;-54
2021/03/22 00:06:04;;;;;;;;;;;;;;;22.25;37.77;102570.59;3114431;27;115060;-54
2021/03/22 00:07:35;;;;;;;;;;;;;;;22.26;37.85;102571.44;3102496;27;114787;-55
2021/03/22 00:09:06;;;;;;;;;;;;;;;22.24;37.97;102557.63;3089116;28;115950;-55
2021/03/22 00:10:41;;;;;;;;;;;;;;;22.24;37.47;102571.69;3120267;27;113983;-55
2021/03/22 00:12:12;;;;;;;;;;;;;;;22.23;37.54;102567.19;3106361;27;116092;-55
2021/03/22 00:13:43;;;;;;;;;;;;;;;22.21;37.92;102568.63;3100841;28;115662;-55
2021/03/22 00:15:15;;;;;;;;;;;;;;;22.21;38.03;102568.63;3088215;28;115720;-54
2021/03/22 00:16:46;;;;;;;;;;;;;;;22.20;37.95;102561.28;3111513;27;114644;-54
2021/03/22 00:18:19;;;;;;;;;;;;;;;22.18;37.70;102564.38;3112766;27;115800;-54
2021/03/22 00:19:50;;;;;;;;;;;;;;;22.17;37.93;102565.50;3121576;27;115780;-54
2021/03/22 00:21:21;;;;;;;;;;;;;;;22.14;37.95;102568.88;3098083;27;116111;-54
2021/03/22 00:22:52;;;;;;;;;;;;;;;22.14;38.08;102560.44;3087283;28;116407;-54
2021/03/22 00:24:23;;;;;;;;;;;;;;;22.12;38.47;102557.88;3095531;28;115856;-53
2021/03/22 00:25:54;;;;;;;;;;;;;;;22.11;38.31;102564.66;3095885;28;116107;-55
2021/03/22 00:27:25;;;;;;;;;;;;;;;22.07;38.27;102551.44;3099521;28;115524;-53
2021/03/22 00:28:56;;;;;;;;;;;;;;;22.07;38.46;102568.31;3094632;28;116303;-54
2021/03/22 00:30:30;;;;;;;;;;;;;;;22.05;38.03;102564.94;3097326;28;114624;-54
2021/03/22 00:32:02;;;;;;;;;;;;;;;22.04;38.61;102566.03;3117199;27;114863;-54
2021/03/22 00:33:33;;;;;;;;;;;;;;;22.04;38.54;102563.22;3097672;28;115675;-54
2021/03/22 00:35:05;;;;;;;;;;;;;;;22.01;38.64;102560.97;3095466;28;113813;-54
2021/03/22 00:36:36;;;;;;;;;;;;;;;21.99;38.47;102566.88;3118412;27;113733;-54
2021/03/22 00:38:07;;;;;;;;;;;;;;;21.99;38.55;102552.81;3104513;27;113821;-54
2021/03/22 00:39:38;;;;;;;;;;;;;;;21.98;38.66;102556.78;3096752;28;114025;-54
2021/03/22 00:41:10;;;;;;;;;;;;;;;21.97;38.75;102562.66;3096950;28;113760;-54
2021/03/22 00:42:42;;;;;;;;;;;;;;;21.97;38.65;102562.66;3093556;28;113750;-55
2021/03/22 00:44:13;;;;;;;;;;;;;;;21.97;38.83;102559.84;3096386;28;113690;-54
2021/03/22 00:45:44;;;;;;;;;;;;;;;21.95;39.12;102554.50;3117705;27;113948;-55
2021/03/22 00:47:15;;;;;;;;;;;;;;;21.95;39.13;102559.28;3101408;27;113746;-55
2021/03/22 00:48:48;;;;;;;;;;;;;;;21.92;39.07;102551.38;3088984;28;113948;-55
2021/03/22 00:50:24;;;;;;;;;;;;;;;21.92;38.68;102548.53;3117566;27;113782;-55
2021/03/22 00:51:55;;;;;;;;;;;;;;;21.90;38.87;102542.34;3101931;28;114179;-54
2021/03/22 00:53:26;;;;;;;;;;;;;;;21.91;38.93;102541.22;3090015;28;113969;-55
2021/03/22 00:54:57;;;;;;;;;;;;;;;21.92;38.72;102542.91;3086625;28;113636;-54
2021/03/22 00:56:28;;;;;;;;;;;;;;;21.87;39.07;102540.09;3089710;28;115268;-55
2021/03/22 00:58:01;;;;;;;;;;;;;;;21.88;38.94;102538.97;3094403;28;115112;-55
2021/03/22 00:59:32;;;;;;;;;;;;;;;21.87;38.69;102532.50;3101973;28;115721;-54
2021/03/22 01:01:03;;;;;;;;;;;;;;;21.84;39.02;102535.03;3092570;28;115014;-55
2021/03/22 01:02:34;;;;;;;;;;;;;;;21.87;38.78;102540.94;3111715;27;115242;-54
2021/03/22 01:04:05;;;;;;;;;;;;;;;21.86;38.72;102539.25;3097599;27;114477;-54
2021/03/22 01:05:36;;;;;;;;;;;;;;;21.86;39.12;102532.78;3092209;28;116921;-54
2021/03/22 01:07:07;;;;;;;;;;;;;;;21.82;39.08;102528.81;3095434;28;113905;-54
2021/03/22 01:08:40;;;;;;;;;;;;;;;21.80;39.29;102523.50;3094394;28;114981;-54
2021/03/22 01:10:21;;;;;;;;;;;;;;;21.78;39.18;102527.69;3115642;27;115073;-54
2021/03/22 01:11:52;;;;;;;;;;;;;;;21.77;39.25;102523.19;3102744;27;115143;-54
2021/03/22 01:13:24;;;;;;;;;;;;;;;21.76;39.10;102527.97;3096932;28;115388;-54
2021/03/22 01:15:05;;;;;;;;;;;;;;;21.74;39.02;102522.63;3083747;28;115178;-55
2021/03/22 01:16:37;;;;;;;;;;;;;;;21.75;39.13;102520.69;3089127;28;115135;-55
2021/03/22 01:18:09;;;;;;;;;;;;;;;21.72;39.12;102524.03;3112193;27;116573;-55
2021/03/22 01:19:40;;;;;;;;;;;;;;;21.70;39.24;102527.13;3098944;27;115493;-54
2021/03/22 01:21:11;;;;;;;;;;;;;;;21.71;39.16;102525.16;3094455;28;115720;-54
2021/03/22 01:22:42;;;;;;;;;;;;;;;21.69;39.14;102525.44;3097506;28;116024;-54
2021/03/22 01:24:15;;;;;;;;;;;;;;;21.70;39.13;102526.28;3087097;28;115979;-55
2021/03/22 01:25:46;;;;;;;;;;;;;;;21.67;39.04;102524.00;3102481;28;115715;-56
2021/03/22 01:27:17;;;;;;;;;;;;;;;21.67;38.99;102518.38;3097832;28;115747;-55
2021/03/22 01:28:48;;;;;;;;;;;;;;;21.63;38.98;102514.44;3113542;27;115654;-56
2021/03/22 01:30:22;;;;;;;;;;;;;;;21.64;38.86;102511.34;3104510;27;115789;-55
2021/03/22 01:31:56;;;;;;;;;;;;;;;21.62;39.21;102510.78;3102963;28;116026;-54
2021/03/22 01:33:34;;;;;;;;;;;;;;;21.61;38.83;102511.06;3096372;28;115857;-55
2021/03/22 01:35:05;;;;;;;;;;;;;;;21.60;38.98;102512.19;3095821;28;115733;-55
2021/03/22 01:36:36;;;;;;;;;;;;;;;21.57;39.40;102507.13;3085316;28;115392;-54
2021/03/22 01:38:07;;;;;;;;;;;;;;;21.56;39.13;102497.84;3112994;27;115911;-55
2021/03/22 01:39:39;;;;;;;;;;;;;;;21.53;39.21;102501.19;3108134;27;113717;-55
2021/03/22 01:41:20;;;;;;;;;;;;;;;21.53;39.09;102501.19;3096641;28;114006;-55
2021/03/22 01:42:53;;;;;;;;;;;;;;;21.51;39.18;102499.78;3093265;28;114285;-54
2021/03/22 01:44:25;;;;;;;;;;;;;;;21.51;39.30;102497.81;3092222;28;113631;-54
2021/03/22 01:45:57;;;;;;;;;;;;;;;21.51;39.15;102499.78;3093504;28;114059;-54
2021/03/22 01:47:30;;;;;;;;;;;;;;;21.51;39.21;102502.59;3088103;28;115495;-54
2021/03/22 01:49:04;;;;;;;;;;;;;;;21.50;39.24;102496.13;3112663;27;113945;-55
2021/03/22 01:50:35;;;;;;;;;;;;;;;21.49;39.04;102488.81;3098589;28;114026;-55
2021/03/22 01:52:07;;;;;;;;;;;;;;;21.47;39.30;102487.41;3091139;28;113810;-55
2021/03/22 01:53:38;;;;;;;;;;;;;;;21.47;39.19;102485.44;3102069;28;113722;-55
2021/03/22 01:55:11;;;;;;;;;;;;;;;21.47;39.18;102479.81;3091135;28;113723;-55
2021/03/22 01:56:47;;;;;;;;;;;;;;;21.45;39.07;102481.22;3113989;27;113752;-55
2021/03/22 01:58:18;;;;;;;;;;;;;;;21.45;39.12;102479.25;3099262;28;113619;-54
2021/03/22 01:59:49;;;;;;;;;;;;;;;21.46;39.11;102480.94;3095808;28;113781;-55
2021/03/22 02:01:23;;;;;;;;;;;;;;;21.45;39.14;102478.41;3095769;28;113661;-55
2021/03/22 02:02:58;;;;;;;;;;;;;;;21.43;39.20;102477.84;3089258;28;115172;-54
2021/03/22 02:04:30;;;;;;;;;;;;;;;21.42;39.26;102479.81;3092194;28;115688;-55
2021/03/22 02:06:01;;;;;;;;;;;;;;;21.43;39.06;102475.88;3088436;28;115036;-55
2021/03/22 02:07:32;;;;;;;;;;;;;;;21.42;39.43;102482.63;3093930;28;115620;-54
2021/03/22 02:09:04;;;;;;;;;;;;;;;21.40;39.35;102470.78;3100417;28;115026;-54
2021/03/22 02:10:35;;;;;;;;;;;;;;;21.39;39.37;102477.56;3085471;28;115071;-55
2021/03/22 02:12:16;;;;;;;;;;;;;;;21.38;39.37;102466.59;3093269;28;115108;-54
2021/03/22 02:13:47;;;;;;;;;;;;;;;21.37;39.32;102464.88;3090154;28;114025;-54
2021/03/22 02:15:19;;;;;;;;;;;;;;;21.37;39.17;102459.25;3095241;28;115437;-55
2021/03/22 02:16:59;;;;;;;;;;;;;;;21.36;39.33;102474.44;3111100;27;115130;-56
2021/03/22 02:18:37;;;;;;;;;;;;;;;21.35;39.12;102467.97;3096392;28;114947;-54
2021/03/22 02:20:19;;;;;;;;;;;;;;;21.33;39.47;102466.56;3098185;28;115552;-55
2021/03/22 02:21:59;;;;;;;;;;;;;;;21.32;39.72;102459.25;3088460;28;114416;-55
2021/03/22 02:23:39;;;;;;;;;;;;;;;21.30;39.61;102460.34;3091985;28;114984;-55
2021/03/22 02:25:19;;;;;;;;;;;;;;;21.28;39.55;102464.59;3090694;28;115820;-55
2021/03/22 02:26:59;;;;;;;;;;;;;;;21.24;39.38;102453.06;3090173;28;115754;-54
2021/03/22 02:28:39;;;;;;;;;;;;;;;21.24;39.52;102461.47;3090253;28;115720;-55
2021/03/22 02:30:12;;;;;;;;;;;;;;;21.22;39.59;102460.91;3090966;28;115731;-55
2021/03/22 02:31:53;;;;;;;;;;;;;;;21.22;39.23;102457.25;3094753;28;116153;-55
2021/03/22 02:33:25;;;;;;;;;;;;;;;21.21;39.51;102456.41;3087676;28;115872;-54
2021/03/22 02:35:00;;;;;;;;;;;;;;;21.20;39.37;102457.53;3098410;28;116250;-55
2021/03/22 02:36:36;;;;;;;;;;;;;;;21.21;39.45;102452.78;3089918;28;115678;-55
2021/03/22 02:38:09;;;;;;;;;;;;;;;21.17;39.57;102454.41;3077018;28;116231;-55
2021/03/22 02:39:50;;;;;;;;;;;;;;;21.17;39.50;102454.41;3086305;28;115795;-54
2021/03/22 02:41:24;;;;;;;;;;;;;;;21.15;39.54;102448.25;3076233;28;116147;-55
2021/03/22 02:42:56;;;;;;;;;;;;;;;21.15;39.62;102446.28;3085611;28;114385;-54
2021/03/22 02:44:28;;;;;;;;;;;;;;;21.15;39.54;102445.44;3086876;28;115700;-55
2021/03/22 02:45:59;;;;;;;;;;;;;;;21.11;39.28;102447.91;3111083;27;114659;-54
2021/03/22 02:47:32;;;;;;;;;;;;;;;21.11;39.25;102447.91;3094037;27;113783;-54
2021/03/22 02:49:06;;;;;;;;;;;;;;;21.10;39.37;102454.66;3085056;28;113810;-54
2021/03/22 02:50:40;;;;;;;;;;;;;;;21.08;39.45;102451.25;3085632;28;113882;-54
2021/03/22 02:52:11;;;;;;;;;;;;;;;21.08;39.59;102448.44;3086561;28;113725;-55
2021/03/22 02:53:44;;;;;;;;;;;;;;;21.06;39.57;102447.91;3086396;28;113938;-54
2021/03/22 02:55:30;;;;;;;;;;;;;;;21.08;39.52;102444.78;3110058;28;113862;-55
2021/03/22 02:57:08;;;;;;;;;;;;;;;21.07;39.49;102446.78;3088255;28;113934;-56
2021/03/22 02:58:45;;;;;;;;;;;;;;;21.03;39.65;102440.00;3085815;28;113747;-55
2021/03/22 03:00:25;;;;;;;;;;;;;;;21.04;39.57;102446.47;3085852;28;113707;-55
2021/03/22 03:01:58;;;;;;;;;;;;;;;21.03;39.45;102434.38;3085371;28;113951;-54
2021/03/22 03:03:32;;;;;;;;;;;;;;;21.02;39.66;102437.47;3097385;28;113695;-54
2021/03/22 03:05:13;;;;;;;;;;;;;;;21.01;39.63;102438.59;3081443;28;113772;-55
2021/03/22 03:06:45;;;;;;;;;;;;;;;21.00;39.71;102432.13;3086330;28;113728;-55
2021/03/22 03:08:17;;;;;;;;;;;;;;;20.99;39.66;102435.22;3092885;28;113743;-55
2021/03/22 03:09:49;;;;;;;;;;;;;;;20.98;39.64;102430.72;3087345;28;115136;-55
2021/03/22 03:11:20;;;;;;;;;;;;;;;20.99;39.89;102430.44;3110227;28;115041;-55
2021/03/22 03:12:51;;;;;;;;;;;;;;;20.96;39.81;102428.19;3103931;27;115471;-54
2021/03/22 03:14:23;;;;;;;;;;;;;;;20.96;39.61;102421.72;3087944;28;115330;-54
2021/03/22 03:15:54;;;;;;;;;;;;;;;20.97;39.75;102424.25;3083795;28;117448;-54
2021/03/22 03:17:25;;;;;;;;;;;;;;;20.95;39.64;102431.25;3087944;28;115138;-54
2021/03/22 03:18:56;;;;;;;;;;;;;;;20.94;39.80;102426.78;3080449;28;115307;-54
2021/03/22 03:20:28;;;;;;;;;;;;;;;20.91;39.93;102418.88;3086785;28;115044;-55
2021/03/22 03:22:00;;;;;;;;;;;;;;;20.92;39.86;102429.00;3111651;27;114806;-55
2021/03/22 03:23:31;;;;;;;;;;;;;;;20.91;39.86;102430.13;3097855;28;114988;-54
2021/03/22 03:25:03;;;;;;;;;;;;;;;20.89;39.65;102426.75;3086183;28;115097;-54
2021/03/22 03:26:35;;;;;;;;;;;;;;;20.88;39.94;102433.50;3099103;28;115025;-54
2021/03/22 03:28:06;;;;;;;;;;;;;;;20.88;39.68;102430.69;3091097;28;115017;-54
2021/03/22 03:29:38;;;;;;;;;;;;;;;20.86;40.08;102426.19;3115462;27;114106;-55
2021/03/22 03:31:09;;;;;;;;;;;;;;;20.85;39.60;102427.28;3094726;28;115651;-54
2021/03/22 03:32:40;;;;;;;;;;;;;;;20.85;39.96;102432.91;3088005;28;115947;-54
2021/03/22 03:34:12;;;;;;;;;;;;;;;20.88;39.96;102431.53;3093663;28;116096;-53
2021/03/22 03:35:44;;;;;;;;;;;;;;;20.86;39.78;102431.78;3099057;28;115891;-55
2021/03/22 03:37:15;;;;;;;;;;;;;;;20.88;39.70;102431.53;3099527;28;115745;-55
2021/03/22 03:38:46;;;;;;;;;;;;;;;20.86;39.98;102434.59;3093224;27;116157;-55
2021/03/22 03:40:27;;;;;;;;;;;;;;;20.84;40.25;102431.25;3087305;28;114648;-54
2021/03/22 03:41:58;;;;;;;;;;;;;;;20.81;39.80;102430.91;3097456;28;116219;-54
2021/03/22 03:43:29;;;;;;;;;;;;;;;20.80;39.73;102435.69;3100608;28;115588;-55
2021/03/22 03:45:00;;;;;;;;;;;;;;;20.79;39.88;102433.19;3090742;28;116093;-54
2021/03/22 03:46:31;;;;;;;;;;;;;;;20.81;40.05;102430.91;3092655;28;114467;-54
2021/03/22 03:48:04;;;;;;;;;;;;;;;20.79;39.95;102431.22;3109019;28;116077;-54
2021/03/22 03:49:35;;;;;;;;;;;;;;;20.79;40.21;102438.78;3106461;27;115848;-55
2021/03/22 03:51:07;;;;;;;;;;;;;;;20.77;40.03;102430.63;3097588;27;115688;-55
2021/03/22 03:52:38;;;;;;;;;;;;;;;20.76;40.00;102431.75;3091389;28;115703;-54
2021/03/22 03:54:09;;;;;;;;;;;;;;;20.76;40.34;102434.56;3097883;28;113701;-54
2021/03/22 03:55:40;;;;;;;;;;;;;;;20.75;40.13;102437.66;3100932;28;113698;-54
2021/03/22 03:57:11;;;;;;;;;;;;;;;20.75;39.95;102441.31;3090822;28;113798;-54
2021/03/22 03:58:44;;;;;;;;;;;;;;;20.75;40.38;102443.28;3087914;28;113856;-55
2021/03/22 04:00:21;;;;;;;;;;;;;;;20.74;40.25;102447.19;3077214;28;113976;-55
2021/03/22 04:01:53;;;;;;;;;;;;;;;20.73;39.95;102440.72;3098892;28;113735;-55
2021/03/22 04:03:26;;;;;;;;;;;;;;;20.72;40.16;102446.59;3098847;28;113852;-53
2021/03/22 04:04:57;;;;;;;;;;;;;;;20.72;40.12;102449.41;3098989;27;114207;-54
2021/03/22 04:06:31;;;;;;;;;;;;;;;20.69;40.27;102450.81;3101702;27;113692;-55
2021/03/22 04:08:02;;;;;;;;;;;;;;;20.69;39.99;102447.16;3108499;28;113880;-55
2021/03/22 04:09:33;;;;;;;;;;;;;;;20.66;40.20;102445.75;3095663;28;113891;-56
2021/03/22 04:11:05;;;;;;;;;;;;;;;20.66;39.86;102445.75;3087921;28;113774;-55
2021/03/22 04:12:36;;;;;;;;;;;;;;;20.67;39.95;102441.00;3087635;28;113817;-54
2021/03/22 04:14:08;;;;;;;;;;;;;;;20.66;39.87;102445.75;3087857;28;113830;-54
2021/03/22 04:15:39;;;;;;;;;;;;;;;20.66;40.12;102445.75;3099342;28;114017;-54
2021/03/22 04:17:10;;;;;;;;;;;;;;;20.67;39.48;102436.19;3096576;28;115063;-54
2021/03/22 04:18:42;;;;;;;;;;;;;;;20.66;39.80;102433.69;3086844;28;115200;-55
2021/03/22 04:20:13;;;;;;;;;;;;;;;20.63;39.35;102426.63;3112049;27;115069;-55
2021/03/22 04:21:45;;;;;;;;;;;;;;;20.59;39.73;102433.91;3101190;27;115143;-54
2021/03/22 04:23:16;;;;;;;;;;;;;;;20.57;39.11;102444.59;3088569;28;115267;-54
2021/03/22 04:24:47;;;;;;;;;;;;;;;20.64;38.73;102436.75;3088733;28;115333;-55
2021/03/22 04:26:19;;;;;;;;;;;;;;;20.60;39.00;102437.56;3110393;27;114735;-55
2021/03/22 04:27:50;;;;;;;;;;;;;;;20.56;39.06;102445.69;3089208;28;115167;-55
2021/03/22 04:29:21;;;;;;;;;;;;;;;20.57;39.22;102441.78;3084373;28;115001;-54
2021/03/22 04:30:52;;;;;;;;;;;;;;;20.56;39.09;102433.63;3086848;28;115828;-54
2021/03/22 04:32:23;;;;;;;;;;;;;;;20.55;39.38;102435.56;3085905;28;115180;-53
2021/03/22 04:33:55;;;;;;;;;;;;;;;20.56;39.23;102440.09;3092442;28;115456;-54
2021/03/22 04:35:26;;;;;;;;;;;;;;;20.53;39.49;102446.25;3079144;28;115174;-55
2021/03/22 04:36:57;;;;;;;;;;;;;;;20.53;39.64;102449.06;3109676;27;115870;-54
2021/03/22 04:38:28;;;;;;;;;;;;;;;20.54;39.43;102441.47;3093171;27;115741;-54
2021/03/22 04:39:59;;;;;;;;;;;;;;;20.52;39.43;102440.91;3087005;28;115766;-54
2021/03/22 04:41:30;;;;;;;;;;;;;;;20.49;39.66;102438.66;3087189;28;116350;-55
2021/03/22 04:43:01;;;;;;;;;;;;;;;20.52;39.20;102438.09;3110014;27;115835;-55
2021/03/22 04:44:32;;;;;;;;;;;;;;;20.50;39.58;102438.34;3094151;28;115627;-55
2021/03/22 04:46:03;;;;;;;;;;;;;;;20.48;39.68;102442.56;3087095;28;114907;-55
2021/03/22 04:47:38;;;;;;;;;;;;;;;20.47;39.47;102438.91;3088939;28;115834;-55
2021/03/22 04:49:09;;;;;;;;;;;;;;;20.48;39.60;102446.22;3103233;27;115668;-55
2021/03/22 04:50:40;;;;;;;;;;;;;;;20.47;39.66;102438.06;3097815;28;114622;-55
2021/03/22 04:52:11;;;;;;;;;;;;;;;20.47;39.64;102435.25;3087255;28;115663;-55
2021/03/22 04:53:42;;;;;;;;;;;;;;;20.46;39.66;102437.22;3087055;28;115755;-54
2021/03/22 04:55:14;;;;;;;;;;;;;;;20.45;39.50;102441.13;3087003;28;115679;-55
2021/03/22 04:56:45;;;;;;;;;;;;;;;20.45;39.51;102446.75;3105512;28;115377;-55
2021/03/22 04:58:16;;;;;;;;;;;;;;;20.44;39.97;102444.22;3090571;28;113838;-54
2021/03/22 04:59:48;;;;;;;;;;;;;;;20.42;39.87;102439.72;3092546;28;113893;-54
2021/03/22 05:01:19;;;;;;;;;;;;;;;20.39;39.68;102437.47;3092520;28;113785;-54
2021/03/22 05:02:51;;;;;;;;;;;;;;;20.41;39.76;102442.78;3095025;28;113842;-53
2021/03/22 05:04:23;;;;;;;;;;;;;;;20.40;39.73;102443.91;3104314;28;113728;-55
2021/03/22 05:05:54;;;;;;;;;;;;;;;20.39;39.85;102431.00;3089259;28;114089;-55
2021/03/22 05:07:25;;;;;;;;;;;;;;;20.38;39.94;102443.34;3075366;28;113676;-54
2021/03/22 05:08:57;;;;;;;;;;;;;;;20.37;39.87;102436.03;3087314;28;113760;-55
2021/03/22 05:10:29;;;;;;;;;;;;;;;20.40;39.53;102435.47;3086705;28;113948;-54
2021/03/22 05:12:02;;;;;;;;;;;;;;;20.41;39.80;102438.03;3110628;28;113781;-54
2021/03/22 05:13:33;;;;;;;;;;;;;;;20.47;39.96;102429.63;3094429;28;113586;-54
2021/03/22 05:15:04;;;;;;;;;;;;;;;20.54;40.16;102433.88;3110316;27;113830;-55
2021/03/22 05:16:35;;;;;;;;;;;;;;;20.55;40.12;102435.56;3093148;28;113747;-55
2021/03/22 05:18:24;;;;;;;;;;;;;;;20.59;40.61;102435.88;3086977;28;113801;-55
2021/03/22 05:19:55;;;;;;;;;;;;;;;20.61;40.40;102440.13;3113230;27;113976;-55
2021/03/22 05:21:26;;;;;;;;;;;;;;;20.64;40.41;102433.94;3093568;28;115315;-55
2021/03/22 05:22:58;;;;;;;;;;;;;;;20.67;40.37;102438.19;3089297;28;115154;-54
2021/03/22 05:24:29;;;;;;;;;;;;;;;20.71;40.04;102437.38;3085815;28;114880;-55
2021/03/22 05:26:00;;;;;;;;;;;;;;;20.74;40.57;102434.00;3087066;28;115156;-55
2021/03/22 05:27:31;;;;;;;;;;;;;;;20.78;40.62;102425.88;3099374;28;115013;-55
2021/03/22 05:29:03;;;;;;;;;;;;;;;20.81;40.49;102428.97;3085463;28;114147;-55
2021/03/22 05:30:34;;;;;;;;;;;;;;;20.86;41.12;102431.78;3106398;28;115329;-54
2021/03/22 05:32:25;;;;;;;;;;;;;;;20.92;40.94;102434.63;3091544;28;114120;-54
2021/03/22 05:33:56;;;;;;;;;;;;;;;20.95;41.01;102426.50;3113373;27;115703;-55
2021/03/22 05:35:27;;;;;;;;;;;;;;;21.01;40.97;102421.75;3097522;28;115001;-55
2021/03/22 05:36:58;;;;;;;;;;;;;;;21.05;41.17;102420.91;3095112;28;115051;-54
2021/03/22 05:38:30;;;;;;;;;;;;;;;21.10;41.04;102422.88;3091175;28;115068;-54
2021/03/22 05:40:01;;;;;;;;;;;;;;;21.16;40.63;102424.63;3098857;28;115034;-55
2021/03/22 05:41:43;;;;;;;;;;;;;;;21.20;40.72;102426.63;3093698;28;115045;-54
2021/03/22 05:43:24;;;;;;;;;;;;;;;21.27;40.44;102423.53;3081260;28;118100;-54
2021/03/22 05:44:57;;;;;;;;;;;;;;;21.32;40.88;102419.88;3084036;28;115833;-54
2021/03/22 05:46:28;;;;;;;;;;;;;;;21.38;40.79;102425.25;3097136;28;115670;-54
2021/03/22 05:48:09;;;;;;;;;;;;;;;21.43;41.16;102415.97;3085864;28;114682;-55
2021/03/22 05:49:45;;;;;;;;;;;;;;;21.47;41.06;102417.97;3091533;28;115850;-55
2021/03/22 05:51:26;;;;;;;;;;;;;;;21.52;40.78;102422.75;3115231;27;115647;-55
2021/03/22 05:53:01;;;;;;;;;;;;;;;21.58;40.59;102424.41;3090554;28;116282;-55
2021/03/22 05:54:34;;;;;;;;;;;;;;;21.62;40.24;102419.94;3080953;28;115774;-55
2021/03/22 05:56:09;;;;;;;;;;;;;;;21.66;40.23;102423.88;3094111;28;115633;-55
2021/03/22 05:57:40;;;;;;;;;;;;;;;21.70;39.98;102423.03;3101176;28;115619;-55
2021/03/22 05:59:17;;;;;;;;;;;;;;;21.73;39.99;102416.84;3090755;28;115345;-55
2021/03/22 06:00:53;;;;;;;;;;;;;;;21.81;40.48;102425.84;3091073;28;115774;-56
2021/03/22 06:02:35;;;;;;;;;;;;;;;21.84;40.33;102414.03;3086624;28;114569;-55
2021/03/22 06:04:15;;;;;;;;;;;;;;;21.88;39.47;102417.97;3087988;28;116293;-55
2021/03/22 06:05:50;;;;;;;;;;;;;;;21.92;39.23;102427.53;3076737;28;113916;-56
2021/03/22 06:07:23;;;;;;;;;;;;;;;21.96;39.22;102423.06;3087007;28;113817;-55
2021/03/22 06:09:02;;;;;;;;;;;;;;;22.01;39.43;102423.06;3110930;27;113636;-55
2021/03/22 06:10:38;;;;;;;;;;;;;;;22.05;39.80;102421.38;3091063;28;114058;-56
2021/03/22 06:12:10;;;;;;;;;;;;;;;22.08;39.55;102423.59;3103909;28;113821;-55
2021/03/22 06:13:43;;;;;;;;;;;;;;;22.12;39.18;102424.75;3094144;28;113745;-56
2021/03/22 06:15:19;;;;;;;;;;;;;;;22.15;39.24;102419.41;3096704;28;114091;-55
2021/03/22 06:17:00;;;;;;;;;;;;;;;22.20;39.01;102426.13;3089143;28;113856;-54
2021/03/22 06:18:49;;;;;;;;;;;;;;;22.25;38.77;102424.16;3091164;28;113845;-55
2021/03/22 06:20:26;;;;;;;;;;;;;;;22.30;38.70;102429.78;3102810;28;113741;-55
2021/03/22 06:21:57;;;;;;;;;;;;;;;22.33;38.87;102422.72;3104842;27;113741;-55
2021/03/22 06:23:35;;;;;;;;;;;;;;;22.35;38.53;102418.50;3093828;28;114278;-55
2021/03/22 06:25:13;;;;;;;;;;;;;;;22.40;38.61;102420.44;3093505;28;113816;-56
2021/03/22 06:26:46;;;;;;;;;;;;;;;22.43;38.72;102423.56;3101960;28;113902;-54
2021/03/22 06:28:19;;;;;;;;;;;;;;;22.47;38.55;102424.69;3097759;28;115387;-55
2021/03/22 06:29:52;;;;;;;;;;;;;;;22.50;38.41;102424.09;3101399;28;114996;-55
2021/03/22 06:31:24;;;;;;;;;;;;;;;22.53;38.64;102431.16;3092288;28;114294;-54
2021/03/22 06:32:58;;;;;;;;;;;;;;;22.56;38.41;102420.16;3110500;27;115545;-54
2021/03/22 06:34:39;;;;;;;;;;;;;;;22.59;38.15;102413.94;3090435;28;115126;-55
2021/03/22 06:36:11;;;;;;;;;;;;;;;22.63;38.18;102419.81;3105216;27;115268;-55
2021/03/22 06:37:43;;;;;;;;;;;;;;;22.66;37.95;102424.06;3108520;27;115147;-55
2021/03/22 06:39:20;;;;;;;;;;;;;;;22.70;38.21;102422.38;3090488;28;115361;-55
2021/03/22 06:40:51;;;;;;;;;;;;;;;22.72;37.83;102417.28;3106558;28;115317;-55
2021/03/22 06:42:23;;;;;;;;;;;;;;;22.75;37.76;102417.56;3090508;28;115557;-53
2021/03/22 06:43:55;;;;;;;;;;;;;;;22.78;37.89;102419.81;3086738;28;114885;-55
2021/03/22 06:45:30;;;;;;;;;;;;;;;22.80;37.95;102420.38;3110600;28;115097;-54
2021/03/22 06:47:05;;;;;;;;;;;;;;;22.85;37.62;102416.69;3076065;28;115114;-55
2021/03/22 06:48:37;;;;;;;;;;;;;;;22.88;37.99;102416.94;3094960;28;115239;-55
2021/03/22 06:50:14;;;;;;;;;;;;;;;22.90;37.97;102422.28;3088833;28;114799;-55
2021/03/22 06:51:55;;;;;;;;;;;;;;;22.93;38.23;102422.56;3099241;28;115709;-55
2021/03/22 06:53:33;;;;;;;;;;;;;;;22.96;38.16;102423.97;3103126;28;116212;-55
2021/03/22 06:55:23;;;;;;;;;;;;;;;22.98;38.01;102422.56;3108215;27;116073;-54
2021/03/22 06:57:04;;;;;;;;;;;;;;;23.01;37.97;102416.31;3099729;28;118119;-55
2021/03/22 06:58:35;;;;;;;;;;;;;;;23.04;37.97;102427.00;3091243;28;116179;-54
2021/03/22 07:00:15;;;;;;;;;;;;;;;23.05;38.00;102417.44;3107237;27;115435;-55
2021/03/22 07:01:47;;;;;;;;;;;;;;;23.09;38.06;102416.84;3101532;27;116341;-55
2021/03/22 07:03:23;;;;;;;;;;;;;;;23.12;38.08;102416.28;3086675;28;116345;-54
2021/03/22 07:04:54;;;;;;;;;;;;;;;23.13;37.90;102410.31;3085860;28;115724;-56
2021/03/22 07:06:25;;;;;;;;;;;;;;;23.16;38.24;102411.75;3087659;28;115686;-55
2021/03/22 07:07:58;;;;;;;;;;;;;;;23.18;38.22;102418.75;3100191;28;115739;-55
2021/03/22 07:09:30;;;;;;;;;;;;;;;23.21;38.15;102423.00;3080179;28;115660;-55
2021/03/22 07:11:02;;;;;;;;;;;;;;;23.22;37.68;102422.69;3088068;28;115888;-55
2021/03/22 07:12:34;;;;;;;;;;;;;;;23.24;37.78;102414.78;3103771;28;114516;-55
2021/03/22 07:14:05;;;;;;;;;;;;;;;23.25;38.04;102412.81;3092038;28;113904;-54
2021/03/22 07:15:37;;;;;;;;;;;;;;;23.27;37.86;102417.00;3087167;28;114058;-55
2021/03/22 07:17:17;;;;;;;;;;;;;;;23.27;37.90;102424.63;3099152;28;114028;-54
2021/03/22 07:19:04;;;;;;;;;;;;;;;23.29;38.03;102428.00;3090583;28;113819;-55
2021/03/22 07:20:35;;;;;;;;;;;;;;;23.28;38.13;102417.84;3108216;27;113740;-55
2021/03/22 07:22:17;;;;;;;;;;;;;;;23.28;37.78;102429.13;3096160;27;113781;-55
2021/03/22 07:23:52;;;;;;;;;;;;;;;23.29;37.62;102423.22;3086447;28;114227;-54
2021/03/22 07:25:32;;;;;;;;;;;;;;;23.30;37.91;102424.06;3111224;28;114204;-55
2021/03/22 07:27:08;;;;;;;;;;;;;;;23.31;37.84;102425.72;3090705;28;114053;-55
2021/03/22 07:28:49;;;;;;;;;;;;;;;23.29;37.82;102426.03;3087520;28;113975;-55
2021/03/22 07:30:27;;;;;;;;;;;;;;;23.30;37.81;102429.69;3088480;28;113746;-54
2021/03/22 07:32:08;;;;;;;;;;;;;;;23.29;38.09;102430.84;3088089;28;113720;-55
2021/03/22 07:33:41;;;;;;;;;;;;;;;23.29;38.57;102434.50;3087525;28;114115;-55
2021/03/22 07:35:14;;;;;;;;;;;;;;;23.28;38.22;102431.97;3091883;28;113777;-55
2021/03/22 07:36:45;;;;;;;;;;;;;;;23.27;38.23;102431.13;3092797;28;115175;-55
2021/03/22 07:38:26;;;;;;;;;;;;;;;23.27;38.26;102431.13;3092012;28;115597;-56
2021/03/22 07:39:59;;;;;;;;;;;;;;;23.25;38.02;102433.41;3078178;28;115636;-56
2021/03/22 07:41:37;;;;;;;;;;;;;;;23.25;38.20;102426.91;3090252;28;115122;-55
2021/03/22 07:43:17;;;;;;;;;;;;;;;23.25;38.16;102430.56;3088183;28;115227;-56
2021/03/22 07:44:58;;;;;;;;;;;;;;;23.24;38.19;102428.88;3087866;28;115146;-55
2021/03/22 07:46:39;;;;;;;;;;;;;;;23.24;38.49;102430.84;3087923;28;115513;-54
2021/03/22 07:48:21;;;;;;;;;;;;;;;23.23;38.58;102430.00;3087124;28;115560;-54
2021/03/22 07:50:12;;;;;;;;;;;;;;;23.22;38.64;102427.47;3087514;28;115127;-54
2021/03/22 07:51:53;;;;;;;;;;;;;;;23.26;38.80;102437.88;3111435;27;115077;-54
2021/03/22 07:53:31;;;;;;;;;;;;;;;23.15;37.82;102433.44;3098877;28;115181;-55
2021/03/22 07:55:05;;;;;;;;;;;;;;;23.10;37.36;102435.44;3083599;28;115086;-55
2021/03/22 07:56:46;;;;;;;;;;;;;;;23.02;37.02;102436.91;3094909;28;115043;-55